Time,TemperatureF,DewpointF,PressureIn,WindDirection,WindDirectionDegrees,WindSpeedMPH,WindSpeedGustMPH,Humidity,HourlyPrecipIn,Conditions,Clouds,dailyrainin,SoftwareType,DateUTC
2013-09-02 00:11:00,73.2,69.4,29.76,North,0,0.0,-999.0,88,-99.99,,,0.00,Acu-Link.com,2013-09-02 04:11:00,
2013-09-02 00:26:00,73.2,69.4,29.76,North,0,0.0,-999.0,88,-99.99,,,0.00,Acu-Link.com,2013-09-02 04:26:00,
2013-09-02 00:41:00,73.2,69.4,29.75,North,0,0.0,-999.0,88,-99.99,,,0.00,Acu-Link.com,2013-09-02 04:41:00,
2013-09-02 00:56:00,73.0,69.2,29.76,North,0,0.0,-999.0,88,-99.99,,,0.00,Acu-Link.com,2013-09-02 04:56:00,
2013-09-02 01:11:00,73.0,69.2,29.76,North,0,0.0,-999.0,88,-99.99,,,0.00,Acu-Link.com,2013-09-02 05:11:00,
2013-09-02 01:26:00,73.0,69.2,29.76,North,0,0.0,-999.0,88,-99.99,,,0.00,Acu-Link.com,2013-09-02 05:26:00,
2013-09-02 01:41:00,73.0,69.2,29.76,North,0,0.0,-999.0,88,-99.99,,,0.00,Acu-Link.com,2013-09-02 05:41:00,
2013-09-02 01:57:00,72.9,69.1,29.76,North,0,0.0,-999.0,88,-99.99,,,0.00,Acu-Link.com,2013-09-02 05:57:00,
2013-09-02 02:12:00,72.7,69.3,29.76,North,0,0.0,-999.0,89,-99.99,,,0.00,Acu-Link.com,2013-09-02 06:12:00,
2013-09-02 02:27:00,72.5,69.1,29.75,East,90,0.0,-999.0,89,-99.99,,,0.00,Acu-Link.com,2013-09-02 06:27:00,
2013-09-02 02:42:00,72.5,68.7,29.76,ESE,112,0.0,-999.0,88,-99.99,,,0.00,Acu-Link.com,2013-09-02 06:42:00,
2013-09-02 02:57:00,72.5,68.7,29.75,ESE,112,0.0,-999.0,88,-99.99,,,0.00,Acu-Link.com,2013-09-02 06:57:00,
2013-09-02 03:12:00,72.5,68.7,29.76,ESE,112,0.0,-999.0,88,-99.99,,,0.00,Acu-Link.com,2013-09-02 07:12:00,
2013-09-02 03:27:00,72.5,68.7,29.74,ESE,112,0.0,-999.0,88,-99.99,,,0.00,Acu-Link.com,2013-09-02 07:27:00,
2013-09-02 03:42:00,72.7,68.9,29.74,ESE,112,0.0,-999.0,88,-99.99,,,0.00,Acu-Link.com,2013-09-02 07:42:00,
2013-09-02 03:57:00,72.7,69.3,29.74,ESE,112,0.0,-999.0,89,-99.99,,,0.00,Acu-Link.com,2013-09-02 07:57:00,
2013-09-02 04:13:00,72.9,69.5,29.75,NW,315,0.0,-999.0,89,-99.99,,,0.00,Acu-Link.com,2013-09-02 08:13:00,
2013-09-02 04:28:00,73.0,69.6,29.75,ENE,67,0.0,-999.0,89,-99.99,,,0.00,Acu-Link.com,2013-09-02 08:28:00,
2013-09-02 04:43:00,73.2,69.8,29.74,West,270,0.0,-999.0,89,-99.99,,,0.00,Acu-Link.com,2013-09-02 08:43:00,
2013-09-02 04:58:00,73.4,70.0,29.75,NE,45,0.0,-999.0,89,-99.99,,,0.00,Acu-Link.com,2013-09-02 08:58:00,
2013-09-02 05:13:00,73.6,70.1,29.74,NE,45,0.0,-999.0,89,-99.99,,,0.00,Acu-Link.com,2013-09-02 09:13:00,
2013-09-02 05:28:00,73.8,70.3,29.74,NE,45,0.0,-999.0,89,-99.99,,,0.00,Acu-Link.com,2013-09-02 09:28:00,
2013-09-02 05:43:00,73.9,70.4,29.73,WNW,292,0.0,-999.0,89,-99.99,,,0.00,Acu-Link.com,2013-09-02 09:43:00,
2013-09-02 05:59:00,74.1,70.6,29.74,SW,225,0.0,-999.0,89,-99.99,,,0.00,Acu-Link.com,2013-09-02 09:59:00,
2013-09-02 06:14:00,74.1,70.6,29.74,East,90,0.0,-999.0,89,-99.99,,,0.00,Acu-Link.com,2013-09-02 10:14:00,
2013-09-02 06:29:00,74.1,70.6,29.75,North,0,0.0,-999.0,89,-99.99,,,0.00,Acu-Link.com,2013-09-02 10:29:00,
2013-09-02 06:44:00,73.9,70.4,29.75,ESE,112,0.0,-999.0,89,-99.99,,,0.00,Acu-Link.com,2013-09-02 10:44:00,
2013-09-02 07:00:00,73.6,70.1,29.77,East,90,0.0,-999.0,89,-99.99,,,0.00,Acu-Link.com,2013-09-02 11:00:00,
2013-09-02 07:15:00,73.6,70.1,29.77,WNW,292,1.7,-999.0,89,-99.99,,,0.00,Acu-Link.com,2013-09-02 11:15:00,
2013-09-02 07:30:00,73.8,70.3,29.77,ESE,112,0.0,-999.0,89,-99.99,,,0.00,Acu-Link.com,2013-09-02 11:30:00,
2013-09-02 07:45:00,73.9,70.4,29.78,NW,315,1.1,-999.0,89,-99.99,,,0.00,Acu-Link.com,2013-09-02 11:45:00,
2013-09-02 08:00:00,74.1,71.3,29.78,NNE,22,1.1,-999.0,91,-99.99,,,0.00,Acu-Link.com,2013-09-02 12:00:00,
2013-09-02 08:15:00,73.9,70.4,29.79,North,0,0.0,-999.0,89,-99.99,,,0.00,Acu-Link.com,2013-09-02 12:15:00,
2013-09-02 08:30:00,73.9,70.4,29.79,WSW,247,0.0,-999.0,89,-99.99,,,0.00,Acu-Link.com,2013-09-02 12:30:00,
2013-09-02 08:45:00,74.1,70.6,29.79,West,270,2.2,-999.0,89,-99.99,,,0.00,Acu-Link.com,2013-09-02 12:45:00,
2013-09-02 09:00:00,74.7,71.2,29.79,SW,225,1.7,-999.0,89,-99.99,,,0.00,Acu-Link.com,2013-09-02 13:00:00,
2013-09-02 09:16:00,75.9,70.7,29.80,West,270,0.0,-999.0,84,-99.99,,,0.00,Acu-Link.com,2013-09-02 13:16:00,
2013-09-02 09:31:00,77.9,72.3,29.80,NE,45,0.0,-999.0,83,-99.99,,,0.00,Acu-Link.com,2013-09-02 13:31:00,
2013-09-02 09:46:00,79.3,72.6,29.80,ESE,112,0.0,-999.0,80,-99.99,,,0.00,Acu-Link.com,2013-09-02 13:46:00,
2013-09-02 10:01:00,82.0,73.3,29.80,East,90,0.0,-999.0,75,-99.99,,,0.00,Acu-Link.com,2013-09-02 14:01:00,
2013-09-02 10:16:00,83.1,72.7,29.80,NNE,22,1.7,-999.0,71,-99.99,,,0.00,Acu-Link.com,2013-09-02 14:16:00,
2013-09-02 10:31:00,83.5,71.8,29.79,East,90,0.0,-999.0,68,-99.99,,,0.00,Acu-Link.com,2013-09-02 14:31:00,
2013-09-02 10:46:00,84.6,72.0,29.81,West,270,2.2,-999.0,66,-99.99,,,0.00,Acu-Link.com,2013-09-02 14:46:00,
2013-09-02 11:01:00,85.6,72.5,29.80,ESE,112,0.0,-999.0,65,-99.99,,,0.00,Acu-Link.com,2013-09-02 15:01:00,
2013-09-02 11:16:00,83.8,73.4,29.80,ESE,112,0.0,-999.0,71,-99.99,,,0.00,Acu-Link.com,2013-09-02 15:16:00,
2013-09-02 11:32:00,85.8,73.1,29.80,SSW,202,1.7,-999.0,66,-99.99,,,0.00,Acu-Link.com,2013-09-02 15:32:00,
2013-09-02 11:47:00,86.9,74.1,29.80,East,90,0.0,-999.0,66,-99.99,,,0.00,Acu-Link.com,2013-09-02 15:47:00,
2013-09-02 12:02:00,87.4,72.8,29.80,ESE,112,1.7,-999.0,62,-99.99,,,0.00,Acu-Link.com,2013-09-02 16:02:00,
2013-09-02 12:17:00,90.0,73.7,29.79,WNW,292,1.1,-999.0,59,-99.99,,,0.00,Acu-Link.com,2013-09-02 16:17:00,
2013-09-02 12:32:00,89.6,72.3,29.79,SE,135,1.1,-999.0,57,-99.99,,,0.00,Acu-Link.com,2013-09-02 16:32:00,
2013-09-02 12:47:00,90.0,72.7,29.79,SSW,202,0.0,-999.0,57,-99.99,,,0.00,Acu-Link.com,2013-09-02 16:47:00,
2013-09-02 13:02:00,90.0,71.1,29.79,East,90,2.2,-999.0,54,-99.99,,,0.00,Acu-Link.com,2013-09-02 17:02:00,
2013-09-02 13:17:00,90.7,72.8,29.78,WSW,247,1.7,-999.0,56,-99.99,,,0.00,Acu-Link.com,2013-09-02 17:17:00,
2013-09-02 13:32:00,90.0,71.6,29.78,WNW,292,2.7,-999.0,55,-99.99,,,0.00,Acu-Link.com,2013-09-02 17:32:00,
2013-09-02 13:48:00,91.4,72.4,29.77,East,90,0.0,-999.0,54,-99.99,,,0.00,Acu-Link.com,2013-09-02 17:48:00,
2013-09-02 14:03:00,90.7,72.3,29.77,SSW,202,0.0,-999.0,55,-99.99,,,0.00,Acu-Link.com,2013-09-02 18:03:00,
2013-09-02 14:18:00,90.1,72.3,29.77,ESE,112,1.7,-999.0,56,-99.99,,,0.00,Acu-Link.com,2013-09-02 18:18:00,
2013-09-02 14:33:00,90.1,72.3,29.77,South,180,1.1,-999.0,56,-99.99,,,0.00,Acu-Link.com,2013-09-02 18:33:00,
2013-09-02 14:48:00,90.7,72.8,29.76,NNE,22,0.0,-999.0,56,-99.99,,,0.00,Acu-Link.com,2013-09-02 18:48:00,
2013-09-02 15:03:00,90.5,72.6,29.75,WSW,247,0.0,-999.0,56,-99.99,,,0.00,Acu-Link.com,2013-09-02 19:03:00,
2013-09-02 15:19:00,91.4,72.4,29.74,South,180,0.0,-999.0,54,-99.99,,,0.00,Acu-Link.com,2013-09-02 19:19:00,
2013-09-02 15:34:00,90.3,74.0,29.74,South,180,0.0,-999.0,59,-99.99,,,0.00,Acu-Link.com,2013-09-02 19:34:00,
2013-09-02 15:49:00,91.0,72.0,29.73,WNW,292,0.0,-999.0,54,-99.99,,,0.00,Acu-Link.com,2013-09-02 19:49:00,
2013-09-02 16:04:00,91.8,72.2,29.72,NE,45,1.7,-999.0,53,-99.99,,,0.00,Acu-Link.com,2013-09-02 20:04:00,
2013-09-02 16:19:00,91.9,72.3,29.72,SW,225,0.0,-999.0,53,-99.99,,,0.00,Acu-Link.com,2013-09-02 20:19:00,
2013-09-02 16:34:00,90.9,72.5,29.72,NW,315,1.7,-999.0,55,-99.99,,,0.00,Acu-Link.com,2013-09-02 20:34:00,
2013-09-02 16:49:00,91.9,71.1,29.71,West,270,0.0,-999.0,51,-99.99,,,0.00,Acu-Link.com,2013-09-02 20:49:00,
2013-09-02 17:04:00,91.4,69.5,29.71,WSW,247,2.7,-999.0,49,-99.99,,,0.00,Acu-Link.com,2013-09-02 21:04:00,
2013-09-02 17:19:00,89.8,71.4,29.71,North,0,1.1,-999.0,55,-99.99,,,0.00,Acu-Link.com,2013-09-02 21:19:00,
2013-09-02 17:34:00,88.3,71.6,29.70,ESE,112,2.2,-999.0,58,-99.99,,,0.00,Acu-Link.com,2013-09-02 21:34:00,
2013-09-02 17:50:00,87.8,72.6,29.70,SSW,202,0.0,-999.0,61,-99.99,,,0.00,Acu-Link.com,2013-09-02 21:50:00,
2013-09-02 18:05:00,87.4,73.2,29.70,NW,315,0.0,-999.0,63,-99.99,,,0.00,Acu-Link.com,2013-09-02 22:05:00,
2013-09-02 18:20:00,86.7,71.6,29.71,SSE,157,1.1,-999.0,61,-99.99,,,0.00,Acu-Link.com,2013-09-02 22:20:00,
2013-09-02 18:35:00,85.8,71.7,29.71,West,270,0.0,-999.0,63,-99.99,,,0.00,Acu-Link.com,2013-09-02 22:35:00,
2013-09-02 18:50:00,85.3,72.6,29.71,West,270,0.0,-999.0,66,-99.99,,,0.00,Acu-Link.com,2013-09-02 22:50:00,
2013-09-02 19:05:00,84.6,72.8,29.71,WNW,292,0.0,-999.0,68,-99.99,,,0.00,Acu-Link.com,2013-09-02 23:05:00,
2013-09-02 19:20:00,83.3,72.0,29.71,NNW,337,0.0,-999.0,69,-99.99,,,0.00,Acu-Link.com,2013-09-02 23:20:00,
2013-09-02 19:35:00,82.0,71.6,29.70,SSE,157,0.0,-999.0,71,-99.99,,,0.00,Acu-Link.com,2013-09-02 23:35:00,
2013-09-02 19:50:00,81.0,71.5,29.71,SSE,157,0.0,-999.0,73,-99.99,,,0.00,Acu-Link.com,2013-09-02 23:50:00,
2013-09-02 20:06:00,80.2,71.9,29.71,SW,225,0.0,-999.0,76,-99.99,,,0.00,Acu-Link.com,2013-09-03 00:06:00,
2013-09-02 20:21:00,79.5,72.4,29.72,East,90,0.0,-999.0,79,-99.99,,,0.00,Acu-Link.com,2013-09-03 00:21:00,
2013-09-02 20:36:00,79.2,72.1,29.72,East,90,0.0,-999.0,79,-99.99,,,0.00,Acu-Link.com,2013-09-03 00:36:00,
2013-09-02 20:51:00,78.8,72.1,29.73,South,180,0.0,-999.0,80,-99.99,,,0.00,Acu-Link.com,2013-09-03 00:51:00,
2013-09-02 21:06:00,78.4,71.7,29.74,West,270,0.0,-999.0,80,-99.99,,,0.00,Acu-Link.com,2013-09-03 01:06:00,
2013-09-02 21:21:00,78.3,71.6,29.74,NW,315,0.0,-999.0,80,-99.99,,,0.00,Acu-Link.com,2013-09-03 01:21:00,
2013-09-02 21:36:00,78.1,71.8,29.74,West,270,0.0,-999.0,81,-99.99,,,0.00,Acu-Link.com,2013-09-03 01:36:00,
2013-09-02 21:51:00,77.9,71.6,29.73,NNW,337,0.0,-999.0,81,-99.99,,,0.00,Acu-Link.com,2013-09-03 01:51:00,
2013-09-02 22:06:00,77.7,71.4,29.74,NE,45,0.0,-999.0,81,-99.99,,,0.00,Acu-Link.com,2013-09-03 02:06:00,
2013-09-02 22:22:00,77.5,71.2,29.75,NE,45,0.0,-999.0,81,-99.99,,,0.00,Acu-Link.com,2013-09-03 02:22:00,
2013-09-02 22:37:00,77.0,71.4,29.75,NE,45,0.0,-999.0,83,-99.99,,,0.00,Acu-Link.com,2013-09-03 02:37:00,
2013-09-02 22:52:00,76.5,71.3,29.74,NNE,22,0.0,-999.0,84,-99.99,,,0.00,Acu-Link.com,2013-09-03 02:52:00,
2013-09-02 23:07:00,76.3,71.4,29.73,NNE,22,0.0,-999.0,85,-99.99,,,0.00,Acu-Link.com,2013-09-03 03:07:00,
2013-09-02 23:22:00,76.1,71.3,29.74,NNE,22,0.0,-999.0,85,-99.99,,,0.00,Acu-Link.com,2013-09-03 03:22:00,
2013-09-02 23:37:00,75.9,71.1,29.73,NNE,22,0.0,-999.0,85,-99.99,,,0.00,Acu-Link.com,2013-09-03 03:37:00,
2013-09-02 23:52:00,75.7,70.5,29.74,NNE,22,0.0,-999.0,84,-99.99,,,0.00,Acu-Link.com,2013-09-03 03:52:00,